sensor_id;sensor_type;location;lat;lon;timestamp;pressure;altitude;pressure_sealevel;temperature;humidity
54870;BME280;40756;-37.950;145.008;2023-05-23T00:00:09;102624.30;;;13.51;45.43
54870;BME280;40756;-37.950;145.008;2023-05-23T00:02:39;102624.13;;;13.48;45.09
54870;BME280;40756;-37.950;145.008;2023-05-23T00:05:09;102618.46;;;13.45;45.27
54870;BME280;40756;-37.950;145.008;2023-05-23T00:07:39;102611.83;;;13.70;44.47
54870;BME280;40756;-37.950;145.008;2023-05-23T00:10:09;102609.34;;;13.87;44.79
54870;BME280;40756;-37.950;145.008;2023-05-23T00:12:40;102603.26;;;13.79;44.53
54870;BME280;40756;-37.950;145.008;2023-05-23T00:15:11;102600.49;;;14.08;44.45
54870;BME280;40756;-37.950;145.008;2023-05-23T00:17:40;102597.83;;;14.36;44.23
54870;BME280;40756;-37.950;145.008;2023-05-23T00:20:11;102598.29;;;14.28;43.69
54870;BME280;40756;-37.950;145.008;2023-05-23T00:22:40;102604.10;;;14.31;43.19
54870;BME280;40756;-37.950;145.008;2023-05-23T00:25:10;102605.84;;;14.05;43.60
54870;BME280;40756;-37.950;145.008;2023-05-23T00:27:40;102599.23;;;14.13;43.86
54870;BME280;40756;-37.950;145.008;2023-05-23T00:30:10;102596.77;;;14.07;43.67
54870;BME280;40756;-37.950;145.008;2023-05-23T00:32:40;102595.06;;;13.91;43.38
54870;BME280;40756;-37.950;145.008;2023-05-23T00:35:09;102594.17;;;14.47;43.97
54870;BME280;40756;-37.950;145.008;2023-05-23T00:37:39;102592.32;;;14.63;44.11
54870;BME280;40756;-37.950;145.008;2023-05-23T00:40:09;102593.25;;;14.31;43.90
54870;BME280;40756;-37.950;145.008;2023-05-23T00:42:39;102596.16;;;14.01;43.05
54870;BME280;40756;-37.950;145.008;2023-05-23T00:45:09;102590.89;;;14.33;43.85
54870;BME280;40756;-37.950;145.008;2023-05-23T00:47:40;102582.91;;;14.40;43.96
54870;BME280;40756;-37.950;145.008;2023-05-23T00:50:12;102582.94;;;13.99;44.11
54870;BME280;40756;-37.950;145.008;2023-05-23T00:52:42;102583.18;;;14.33;44.10
54870;BME280;40756;-37.950;145.008;2023-05-23T00:55:13;102580.77;;;14.56;43.45
54870;BME280;40756;-37.950;145.008;2023-05-23T00:57:42;102576.06;;;15.21;42.96
54870;BME280;40756;-37.950;145.008;2023-05-23T01:00:13;102570.21;;;14.70;43.78
54870;BME280;40756;-37.950;145.008;2023-05-23T01:02:45;102566.03;;;15.04;43.13
54870;BME280;40756;-37.950;145.008;2023-05-23T01:05:16;102556.77;;;14.62;43.32
54870;BME280;40756;-37.950;145.008;2023-05-23T01:07:46;102552.68;;;14.74;43.62
54870;BME280;40756;-37.950;145.008;2023-05-23T01:10:17;102544.43;;;15.19;42.61
54870;BME280;40756;-37.950;145.008;2023-05-23T01:12:57;102542.48;;;15.28;42.68
54870;BME280;40756;-37.950;145.008;2023-05-23T01:15:35;102544.37;;;14.86;42.67
54870;BME280;40756;-37.950;145.008;2023-05-23T01:18:09;102544.78;;;15.25;42.41
54870;BME280;40756;-37.950;145.008;2023-05-23T01:20:44;102549.19;;;15.52;42.02
54870;BME280;40756;-37.950;145.008;2023-05-23T01:24:10;102551.81;;;15.74;41.72
54870;BME280;40756;-37.950;145.008;2023-05-23T01:27:07;102559.50;;;14.87;43.00
54870;BME280;40756;-37.950;145.008;2023-05-23T01:29:41;102555.80;;;13.89;44.81
54870;BME280;40756;-37.950;145.008;2023-05-23T01:32:13;102549.23;;;14.29;44.56
54870;BME280;40756;-37.950;145.008;2023-05-23T01:34:44;102542.73;;;13.70;44.79
54870;BME280;40756;-37.950;145.008;2023-05-23T01:37:14;102538.84;;;14.53;44.60
54870;BME280;40756;-37.950;145.008;2023-05-23T01:39:44;102539.18;;;14.83;43.33
54870;BME280;40756;-37.950;145.008;2023-05-23T01:42:14;102534.02;;;14.11;44.78
54870;BME280;40756;-37.950;145.008;2023-05-23T01:44:44;102534.43;;;15.06;43.41
54870;BME280;40756;-37.950;145.008;2023-05-23T01:47:15;102532.73;;;15.31;42.21
54870;BME280;40756;-37.950;145.008;2023-05-23T01:49:46;102533.58;;;15.18;42.27
54870;BME280;40756;-37.950;145.008;2023-05-23T01:52:15;102535.08;;;15.17;42.21
54870;BME280;40756;-37.950;145.008;2023-05-23T01:54:45;102531.02;;;15.12;41.72
54870;BME280;40756;-37.950;145.008;2023-05-23T01:57:15;102519.70;;;15.78;41.50
54870;BME280;40756;-37.950;145.008;2023-05-23T01:59:46;102513.13;;;16.19;41.39
54870;BME280;40756;-37.950;145.008;2023-05-23T02:02:16;102504.56;;;15.90;41.70
54870;BME280;40756;-37.950;145.008;2023-05-23T02:04:47;102497.47;;;16.72;41.08
54870;BME280;40756;-37.950;145.008;2023-05-23T02:07:17;102495.14;;;15.97;40.59
54870;BME280;40756;-37.950;145.008;2023-05-23T02:09:47;102496.40;;;15.90;41.73
54870;BME280;40756;-37.950;145.008;2023-05-23T02:12:16;102493.02;;;15.74;41.77
54870;BME280;40756;-37.950;145.008;2023-05-23T02:14:46;102489.32;;;15.45;41.76
54870;BME280;40756;-37.950;145.008;2023-05-23T02:17:16;102491.72;;;14.31;44.25
54870;BME280;40756;-37.950;145.008;2023-05-23T02:19:46;102491.81;;;14.64;44.06
54870;BME280;40756;-37.950;145.008;2023-05-23T02:22:15;102494.64;;;15.08;43.99
54870;BME280;40756;-37.950;145.008;2023-05-23T02:24:45;102485.86;;;15.67;43.64
54870;BME280;40756;-37.950;145.008;2023-05-23T02:27:14;102480.93;;;15.27;43.81
54870;BME280;40756;-37.950;145.008;2023-05-23T02:29:44;102477.65;;;14.68;44.56
54870;BME280;40756;-37.950;145.008;2023-05-23T02:32:13;102469.15;;;15.60;43.62
54870;BME280;40756;-37.950;145.008;2023-05-23T02:34:43;102462.63;;;15.74;43.36
54870;BME280;40756;-37.950;145.008;2023-05-23T02:37:13;102458.37;;;16.29;42.31
54870;BME280;40756;-37.950;145.008;2023-05-23T02:39:43;102457.53;;;16.51;42.24
54870;BME280;40756;-37.950;145.008;2023-05-23T02:42:13;102454.61;;;16.09;41.31
54870;BME280;40756;-37.950;145.008;2023-05-23T02:44:42;102451.14;;;16.45;41.01
54870;BME280;40756;-37.950;145.008;2023-05-23T02:47:12;102446.03;;;15.81;42.22
54870;BME280;40756;-37.950;145.008;2023-05-23T02:49:41;102441.30;;;16.30;41.44
54870;BME280;40756;-37.950;145.008;2023-05-23T02:52:11;102436.91;;;16.00;41.87
54870;BME280;40756;-37.950;145.008;2023-05-23T02:54:41;102429.66;;;15.23;41.96
54870;BME280;40756;-37.950;145.008;2023-05-23T02:57:10;102422.82;;;15.70;41.42
54870;BME280;40756;-37.950;145.008;2023-05-23T02:59:39;102423.93;;;15.49;41.86
54870;BME280;40756;-37.950;145.008;2023-05-23T03:02:09;102428.26;;;15.14;42.20
54870;BME280;40756;-37.950;145.008;2023-05-23T03:04:39;102425.82;;;15.42;43.02
54870;BME280;40756;-37.950;145.008;2023-05-23T03:07:09;102425.84;;;14.73;43.37
54870;BME280;40756;-37.950;145.008;2023-05-23T03:09:38;102416.43;;;15.61;42.57
54870;BME280;40756;-37.950;145.008;2023-05-23T03:12:08;102423.64;;;15.22;42.58
54870;BME280;40756;-37.950;145.008;2023-05-23T03:14:38;102424.02;;;15.40;42.89
54870;BME280;40756;-37.950;145.008;2023-05-23T03:17:08;102418.48;;;15.71;42.05
54870;BME280;40756;-37.950;145.008;2023-05-23T03:19:38;102415.72;;;15.39;41.97
54870;BME280;40756;-37.950;145.008;2023-05-23T03:22:08;102413.83;;;14.92;42.99
54870;BME280;40756;-37.950;145.008;2023-05-23T03:24:38;102408.18;;;15.18;43.37
54870;BME280;40756;-37.950;145.008;2023-05-23T03:27:07;102414.00;;;14.34;43.52
54870;BME280;40756;-37.950;145.008;2023-05-23T03:29:36;102413.72;;;14.96;43.64
54870;BME280;40756;-37.950;145.008;2023-05-23T03:32:06;102408.08;;;14.69;43.61
54870;BME280;40756;-37.950;145.008;2023-05-23T03:34:36;102405.04;;;15.30;44.27
54870;BME280;40756;-37.950;145.008;2023-05-23T03:37:05;102401.81;;;15.13;43.99
54870;BME280;40756;-37.950;145.008;2023-05-23T03:39:35;102392.25;;;15.21;42.75
54870;BME280;40756;-37.950;145.008;2023-05-23T03:42:05;102389.23;;;15.57;42.95
54870;BME280;40756;-37.950;145.008;2023-05-23T03:44:35;102391.32;;;15.82;42.69
54870;BME280;40756;-37.950;145.008;2023-05-23T03:47:05;102388.10;;;15.94;42.44
54870;BME280;40756;-37.950;145.008;2023-05-23T03:49:35;102383.99;;;16.30;41.37
54870;BME280;40756;-37.950;145.008;2023-05-23T03:52:04;102381.29;;;15.99;40.90
54870;BME280;40756;-37.950;145.008;2023-05-23T03:54:34;102369.52;;;16.71;40.52
54870;BME280;40756;-37.950;145.008;2023-05-23T03:57:03;102375.81;;;15.94;40.91
54870;BME280;40756;-37.950;145.008;2023-05-23T03:59:33;102378.48;;;16.22;40.34
54870;BME280;40756;-37.950;145.008;2023-05-23T04:02:03;102379.04;;;16.34;41.51
54870;BME280;40756;-37.950;145.008;2023-05-23T04:04:33;102380.53;;;16.32;40.06
54870;BME280;40756;-37.950;145.008;2023-05-23T04:07:02;102380.88;;;15.85;41.40
54870;BME280;40756;-37.950;145.008;2023-05-23T04:09:31;102381.78;;;15.23;42.67
54870;BME280;40756;-37.950;145.008;2023-05-23T04:12:01;102373.19;;;16.17;41.91
54870;BME280;40756;-37.950;145.008;2023-05-23T04:14:31;102371.48;;;16.16;41.27
54870;BME280;40756;-37.950;145.008;2023-05-23T04:17:00;102373.87;;;16.03;41.86
54870;BME280;40756;-37.950;145.008;2023-05-23T04:19:30;102369.39;;;16.48;39.65
54870;BME280;40756;-37.950;145.008;2023-05-23T04:22:01;102373.98;;;15.86;41.09
54870;BME280;40756;-37.950;145.008;2023-05-23T04:24:30;102368.53;;;16.07;43.28
54870;BME280;40756;-37.950;145.008;2023-05-23T04:27:00;102375.36;;;15.61;43.66
54870;BME280;40756;-37.950;145.008;2023-05-23T04:29:29;102383.14;;;16.11;43.53
54870;BME280;40756;-37.950;145.008;2023-05-23T04:31:59;102376.72;;;15.76;44.40
54870;BME280;40756;-37.950;145.008;2023-05-23T04:34:28;102374.98;;;15.81;44.32
54870;BME280;40756;-37.950;145.008;2023-05-23T04:36:58;102370.14;;;15.86;42.50
54870;BME280;40756;-37.950;145.008;2023-05-23T04:39:27;102363.37;;;15.15;43.71
54870;BME280;40756;-37.950;145.008;2023-05-23T04:41:57;102359.74;;;14.70;44.82
54870;BME280;40756;-37.950;145.008;2023-05-23T04:44:27;102358.57;;;15.37;45.18
54870;BME280;40756;-37.950;145.008;2023-05-23T04:46:56;102356.64;;;15.82;43.59
54870;BME280;40756;-37.950;145.008;2023-05-23T04:49:26;102354.21;;;15.15;43.94
54870;BME280;40756;-37.950;145.008;2023-05-23T04:51:55;102354.08;;;15.51;43.73
54870;BME280;40756;-37.950;145.008;2023-05-23T04:54:25;102349.72;;;16.09;43.32
54870;BME280;40756;-37.950;145.008;2023-05-23T04:56:55;102356.12;;;15.49;44.08
54870;BME280;40756;-37.950;145.008;2023-05-23T04:59:24;102350.43;;;15.10;44.57
54870;BME280;40756;-37.950;145.008;2023-05-23T05:01:54;102344.53;;;15.37;44.21
54870;BME280;40756;-37.950;145.008;2023-05-23T05:04:23;102338.88;;;15.03;44.56
54870;BME280;40756;-37.950;145.008;2023-05-23T05:06:53;102336.46;;;15.40;43.47
54870;BME280;40756;-37.950;145.008;2023-05-23T05:09:23;102339.98;;;15.62;42.99
54870;BME280;40756;-37.950;145.008;2023-05-23T05:11:52;102343.85;;;15.42;42.86
54870;BME280;40756;-37.950;145.008;2023-05-23T05:14:23;102343.09;;;14.86;43.40
54870;BME280;40756;-37.950;145.008;2023-05-23T05:16:53;102349.88;;;15.72;43.14
54870;BME280;40756;-37.950;145.008;2023-05-23T05:19:23;102349.16;;;15.68;42.47
54870;BME280;40756;-37.950;145.008;2023-05-23T05:21:53;102349.07;;;15.42;42.90
54870;BME280;40756;-37.950;145.008;2023-05-23T05:24:23;102350.38;;;15.51;42.15
54870;BME280;40756;-37.950;145.008;2023-05-23T05:26:53;102351.37;;;15.92;41.72
54870;BME280;40756;-37.950;145.008;2023-05-23T05:29:22;102345.54;;;16.24;41.69
54870;BME280;40756;-37.950;145.008;2023-05-23T05:31:52;102346.23;;;15.62;42.27
54870;BME280;40756;-37.950;145.008;2023-05-23T05:34:22;102348.48;;;16.25;41.49
54870;BME280;40756;-37.950;145.008;2023-05-23T05:36:51;102348.30;;;16.33;41.21
54870;BME280;40756;-37.950;145.008;2023-05-23T05:39:23;102348.93;;;15.78;41.93
54870;BME280;40756;-37.950;145.008;2023-05-23T05:41:52;102342.82;;;16.03;41.12
54870;BME280;40756;-37.950;145.008;2023-05-23T05:44:21;102344.41;;;16.13;41.92
54870;BME280;40756;-37.950;145.008;2023-05-23T05:46:51;102342.43;;;16.16;41.85
54870;BME280;40756;-37.950;145.008;2023-05-23T05:49:21;102340.28;;;16.10;41.62
54870;BME280;40756;-37.950;145.008;2023-05-23T05:51:51;102343.45;;;16.33;41.47
54870;BME280;40756;-37.950;145.008;2023-05-23T05:54:21;102340.42;;;16.08;40.55
54870;BME280;40756;-37.950;145.008;2023-05-23T05:56:51;102340.67;;;16.01;40.19
54870;BME280;40756;-37.950;145.008;2023-05-23T05:59:20;102342.98;;;16.01;40.20
54870;BME280;40756;-37.950;145.008;2023-05-23T06:01:50;102346.71;;;16.38;40.83
54870;BME280;40756;-37.950;145.008;2023-05-23T06:04:19;102345.14;;;15.66;41.60
54870;BME280;40756;-37.950;145.008;2023-05-23T06:06:49;102339.02;;;16.21;41.67
54870;BME280;40756;-37.950;145.008;2023-05-23T06:09:19;102343.40;;;15.15;43.49
54870;BME280;40756;-37.950;145.008;2023-05-23T06:11:48;102350.09;;;15.35;43.67
54870;BME280;40756;-37.950;145.008;2023-05-23T06:14:18;102352.36;;;16.34;43.50
54870;BME280;40756;-37.950;145.008;2023-05-23T06:16:47;102352.21;;;16.95;40.62
54870;BME280;40756;-37.950;145.008;2023-05-23T06:19:17;102361.07;;;16.87;40.71
54870;BME280;40756;-37.950;145.008;2023-05-23T06:21:47;102370.73;;;16.20;41.14
54870;BME280;40756;-37.950;145.008;2023-05-23T06:24:17;102379.46;;;15.81;42.36
54870;BME280;40756;-37.950;145.008;2023-05-23T06:26:48;102380.14;;;15.70;42.79
54870;BME280;40756;-37.950;145.008;2023-05-23T06:29:17;102387.30;;;15.86;43.22
54870;BME280;40756;-37.950;145.008;2023-05-23T06:31:47;102392.19;;;15.52;44.00
54870;BME280;40756;-37.950;145.008;2023-05-23T06:34:17;102399.09;;;15.70;44.40
54870;BME280;40756;-37.950;145.008;2023-05-23T06:36:47;102402.58;;;15.07;45.38
54870;BME280;40756;-37.950;145.008;2023-05-23T06:39:17;102404.08;;;14.93;45.26
54870;BME280;40756;-37.950;145.008;2023-05-23T06:41:47;102409.07;;;15.29;45.26
54870;BME280;40756;-37.950;145.008;2023-05-23T06:44:16;102412.48;;;15.75;45.15
54870;BME280;40756;-37.950;145.008;2023-05-23T06:46:47;102420.75;;;15.42;45.28
54870;BME280;40756;-37.950;145.008;2023-05-23T06:49:17;102425.81;;;15.08;45.25
54870;BME280;40756;-37.950;145.008;2023-05-23T06:51:46;102438.51;;;15.64;45.52
54870;BME280;40756;-37.950;145.008;2023-05-23T06:54:16;102443.26;;;15.33;45.30
54870;BME280;40756;-37.950;145.008;2023-05-23T06:56:46;102448.82;;;14.97;45.06
54870;BME280;40756;-37.950;145.008;2023-05-23T06:59:15;102441.76;;;14.76;45.93
54870;BME280;40756;-37.950;145.008;2023-05-23T07:01:45;102440.62;;;15.23;45.68
54870;BME280;40756;-37.950;145.008;2023-05-23T07:04:15;102450.26;;;13.94;47.04
54870;BME280;40756;-37.950;145.008;2023-05-23T07:06:45;102449.13;;;14.17;46.47
54870;BME280;40756;-37.950;145.008;2023-05-23T07:09:15;102451.76;;;14.47;46.83
54870;BME280;40756;-37.950;145.008;2023-05-23T07:11:44;102459.69;;;14.88;45.80
54870;BME280;40756;-37.950;145.008;2023-05-23T07:14:15;102456.56;;;14.86;45.60
54870;BME280;40756;-37.950;145.008;2023-05-23T07:16:45;102454.31;;;14.69;46.34
54870;BME280;40756;-37.950;145.008;2023-05-23T07:19:14;102456.64;;;14.94;46.89
54870;BME280;40756;-37.950;145.008;2023-05-23T07:21:43;102455.44;;;14.93;46.67
54870;BME280;40756;-37.950;145.008;2023-05-23T07:24:13;102460.24;;;14.80;45.28
54870;BME280;40756;-37.950;145.008;2023-05-23T07:26:43;102465.75;;;13.65;44.26
54870;BME280;40756;-37.950;145.008;2023-05-23T07:29:13;102472.84;;;13.31;46.13
54870;BME280;40756;-37.950;145.008;2023-05-23T07:31:42;102470.89;;;14.12;44.72
54870;BME280;40756;-37.950;145.008;2023-05-23T07:34:12;102475.31;;;13.17;45.47
54870;BME280;40756;-37.950;145.008;2023-05-23T07:36:41;102479.78;;;13.58;44.77
54870;BME280;40756;-37.950;145.008;2023-05-23T07:39:11;102482.34;;;13.99;44.65
54870;BME280;40756;-37.950;145.008;2023-05-23T07:41:40;102485.75;;;14.28;44.32
54870;BME280;40756;-37.950;145.008;2023-05-23T07:44:10;102486.40;;;13.91;44.03
54870;BME280;40756;-37.950;145.008;2023-05-23T07:46:40;102489.22;;;14.44;43.03
54870;BME280;40756;-37.950;145.008;2023-05-23T07:49:09;102493.64;;;13.50;44.22
54870;BME280;40756;-37.950;145.008;2023-05-23T07:51:39;102484.10;;;13.66;44.13
54870;BME280;40756;-37.950;145.008;2023-05-23T07:54:09;102474.91;;;14.07;43.66
54870;BME280;40756;-37.950;145.008;2023-05-23T07:56:38;102478.27;;;13.71;42.85
54870;BME280;40756;-37.950;145.008;2023-05-23T07:59:08;102483.09;;;14.08;43.21
54870;BME280;40756;-37.950;145.008;2023-05-23T08:01:38;102485.96;;;13.87;44.13
54870;BME280;40756;-37.950;145.008;2023-05-23T08:04:07;102469.60;;;14.14;43.17
54870;BME280;40756;-37.950;145.008;2023-05-23T08:06:37;102462.61;;;14.44;42.63
54870;BME280;40756;-37.950;145.008;2023-05-23T08:09:07;102470.22;;;14.59;42.55
54870;BME280;40756;-37.950;145.008;2023-05-23T08:11:36;102464.56;;;14.25;41.91
54870;BME280;40756;-37.950;145.008;2023-05-23T08:14:06;102459.06;;;13.70;42.03
54870;BME280;40756;-37.950;145.008;2023-05-23T08:16:36;102464.46;;;13.66;42.09
54870;BME280;40756;-37.950;145.008;2023-05-23T08:19:05;102474.98;;;13.00;42.91
54870;BME280;40756;-37.950;145.008;2023-05-23T08:21:36;102476.99;;;13.52;42.51
54870;BME280;40756;-37.950;145.008;2023-05-23T08:24:05;102472.74;;;12.97;43.34
54870;BME280;40756;-37.950;145.008;2023-05-23T08:26:35;102481.99;;;13.27;43.14
54870;BME280;40756;-37.950;145.008;2023-05-23T08:29:06;102486.00;;;13.81;42.27
54870;BME280;40756;-37.950;145.008;2023-05-23T08:31:36;102485.50;;;13.67;43.18
54870;BME280;40756;-37.950;145.008;2023-05-23T08:34:06;102482.10;;;14.34;46.89
54870;BME280;40756;-37.950;145.008;2023-05-23T08:36:35;102487.48;;;14.41;48.48
54870;BME280;40756;-37.950;145.008;2023-05-23T08:39:05;102500.24;;;14.54;45.09
54870;BME280;40756;-37.950;145.008;2023-05-23T08:41:35;102501.28;;;15.08;43.20
54870;BME280;40756;-37.950;145.008;2023-05-23T08:44:04;102501.52;;;14.98;40.38
54870;BME280;40756;-37.950;145.008;2023-05-23T08:46:44;102504.94;;;14.18;42.14
54870;BME280;40756;-37.950;145.008;2023-05-23T08:49:16;102509.87;;;14.65;43.84
54870;BME280;40756;-37.950;145.008;2023-05-23T08:51:45;102513.43;;;14.08;41.55
54870;BME280;40756;-37.950;145.008;2023-05-23T08:54:15;102509.56;;;14.07;40.62
54870;BME280;40756;-37.950;145.008;2023-05-23T08:56:45;102503.75;;;13.61;40.50
54870;BME280;40756;-37.950;145.008;2023-05-23T08:59:15;102509.58;;;13.92;41.04
54870;BME280;40756;-37.950;145.008;2023-05-23T09:01:45;102512.48;;;14.09;43.01
54870;BME280;40756;-37.950;145.008;2023-05-23T09:04:16;102510.92;;;14.47;42.48
54870;BME280;40756;-37.950;145.008;2023-05-23T09:06:45;102509.04;;;13.89;40.50
54870;BME280;40756;-37.950;145.008;2023-05-23T09:09:15;102500.41;;;13.68;40.85
54870;BME280;40756;-37.950;145.008;2023-05-23T09:11:45;102504.34;;;13.62;40.75
54870;BME280;40756;-37.950;145.008;2023-05-23T09:14:15;102506.40;;;13.36;40.95
54870;BME280;40756;-37.950;145.008;2023-05-23T09:16:47;102506.15;;;13.46;41.52
54870;BME280;40756;-37.950;145.008;2023-05-23T09:19:18;102508.57;;;13.54;41.80
54870;BME280;40756;-37.950;145.008;2023-05-23T09:21:48;102510.43;;;13.54;42.10
54870;BME280;40756;-37.950;145.008;2023-05-23T09:24:18;102516.55;;;13.70;41.99
54870;BME280;40756;-37.950;145.008;2023-05-23T09:26:48;102522.27;;;13.44;42.04
54870;BME280;40756;-37.950;145.008;2023-05-23T09:29:20;102523.82;;;13.44;42.36
54870;BME280;40756;-37.950;145.008;2023-05-23T09:31:50;102526.15;;;13.23;42.13
54870;BME280;40756;-37.950;145.008;2023-05-23T09:34:19;102528.62;;;13.23;42.80
54870;BME280;40756;-37.950;145.008;2023-05-23T09:36:49;102534.36;;;13.49;42.78
54870;BME280;40756;-37.950;145.008;2023-05-23T09:39:19;102532.27;;;12.99;43.16
54870;BME280;40756;-37.950;145.008;2023-05-23T09:41:49;102522.64;;;13.06;43.41
54870;BME280;40756;-37.950;145.008;2023-05-23T09:44:23;102519.15;;;13.13;43.17
54870;BME280;40756;-37.950;145.008;2023-05-23T09:46:52;102527.48;;;13.05;43.40
54870;BME280;40756;-37.950;145.008;2023-05-23T09:49:22;102535.87;;;13.19;42.79
54870;BME280;40756;-37.950;145.008;2023-05-23T09:51:59;102538.36;;;12.90;42.97
54870;BME280;40756;-37.950;145.008;2023-05-23T09:54:29;102537.22;;;13.24;42.75
54870;BME280;40756;-37.950;145.008;2023-05-23T09:56:59;102528.89;;;13.07;42.75
54870;BME280;40756;-37.950;145.008;2023-05-23T09:59:31;102523.00;;;13.03;42.97
54870;BME280;40756;-37.950;145.008;2023-05-23T10:02:03;102526.58;;;13.01;42.52
54870;BME280;40756;-37.950;145.008;2023-05-23T10:04:36;102527.26;;;13.17;42.41
54870;BME280;40756;-37.950;145.008;2023-05-23T10:07:13;102531.59;;;12.66;42.67
54870;BME280;40756;-37.950;145.008;2023-05-23T10:09:50;102531.68;;;12.64;43.10
54870;BME280;40756;-37.950;145.008;2023-05-23T10:12:44;102524.23;;;13.06;43.42
54870;BME280;40756;-37.950;145.008;2023-05-23T10:15:17;102524.77;;;12.62;43.78
54870;BME280;40756;-37.950;145.008;2023-05-23T10:17:59;102525.63;;;12.96;43.30
54870;BME280;40756;-37.950;145.008;2023-05-23T10:20:31;102530.24;;;13.00;43.26
54870;BME280;40756;-37.950;145.008;2023-05-23T10:23:01;102534.39;;;12.84;43.61
54870;BME280;40756;-37.950;145.008;2023-05-23T10:25:31;102536.57;;;12.96;43.52
54870;BME280;40756;-37.950;145.008;2023-05-23T10:28:01;102541.03;;;12.68;43.65
54870;BME280;40756;-37.950;145.008;2023-05-23T10:30:32;102536.75;;;12.70;43.57
54870;BME280;40756;-37.950;145.008;2023-05-23T10:33:03;102533.92;;;12.47;43.93
54870;BME280;40756;-37.950;145.008;2023-05-23T10:35:45;102535.98;;;12.31;44.18
54870;BME280;40756;-37.950;145.008;2023-05-23T10:38:29;102527.99;;;12.38;44.37
54870;BME280;40756;-37.950;145.008;2023-05-23T10:41:09;102519.03;;;12.22;44.83
54870;BME280;40756;-37.950;145.008;2023-05-23T10:43:46;102529.13;;;12.09;44.96
54870;BME280;40756;-37.950;145.008;2023-05-23T10:46:18;102523.41;;;11.91;45.20
54870;BME280;40756;-37.950;145.008;2023-05-23T10:48:51;102502.28;;;11.76;45.33
54870;BME280;40756;-37.950;145.008;2023-05-23T10:51:22;102504.23;;;12.35;45.35
54870;BME280;40756;-37.950;145.008;2023-05-23T10:53:55;102507.11;;;11.84;45.15
54870;BME280;40756;-37.950;145.008;2023-05-23T10:56:24;102506.22;;;11.74;45.21
54870;BME280;40756;-37.950;145.008;2023-05-23T10:58:55;102507.19;;;11.92;44.87
54870;BME280;40756;-37.950;145.008;2023-05-23T11:01:25;102497.75;;;11.70;45.11
54870;BME280;40756;-37.950;145.008;2023-05-23T11:03:54;102491.02;;;11.86;44.98
54870;BME280;40756;-37.950;145.008;2023-05-23T11:06:31;102490.50;;;11.83;45.08
54870;BME280;40756;-37.950;145.008;2023-05-23T11:09:08;102485.17;;;11.80;45.21
54870;BME280;40756;-37.950;145.008;2023-05-23T11:11:55;102491.30;;;12.23;45.17
54870;BME280;40756;-37.950;145.008;2023-05-23T11:14:52;102488.73;;;11.96;45.50
54870;BME280;40756;-37.950;145.008;2023-05-23T11:17:32;102488.09;;;11.99;45.32
54870;BME280;40756;-37.950;145.008;2023-05-23T11:20:04;102491.97;;;11.44;45.55
54870;BME280;40756;-37.950;145.008;2023-05-23T11:22:34;102491.70;;;11.81;45.87
54870;BME280;40756;-37.950;145.008;2023-05-23T11:25:08;102491.92;;;11.57;46.52
54870;BME280;40756;-37.950;145.008;2023-05-23T11:27:39;102496.49;;;11.41;46.64
54870;BME280;40756;-37.950;145.008;2023-05-23T11:30:11;102495.76;;;11.53;46.89
54870;BME280;40756;-37.950;145.008;2023-05-23T11:32:41;102495.27;;;11.34;47.30
54870;BME280;40756;-37.950;145.008;2023-05-23T11:35:12;102499.98;;;11.58;46.75
54870;BME280;40756;-37.950;145.008;2023-05-23T11:37:41;102499.40;;;11.34;47.24
54870;BME280;40756;-37.950;145.008;2023-05-23T11:40:29;102497.53;;;11.28;47.57
54870;BME280;40756;-37.950;145.008;2023-05-23T11:42:59;102500.87;;;11.19;47.15
54870;BME280;40756;-37.950;145.008;2023-05-23T11:45:30;102495.79;;;11.11;47.78
54870;BME280;40756;-37.950;145.008;2023-05-23T11:48:04;102492.63;;;11.09;47.68
54870;BME280;40756;-37.950;145.008;2023-05-23T11:50:34;102493.92;;;11.21;47.41
54870;BME280;40756;-37.950;145.008;2023-05-23T11:53:11;102498.89;;;11.22;47.55
54870;BME280;40756;-37.950;145.008;2023-05-23T11:55:46;102497.69;;;10.88;47.99
54870;BME280;40756;-37.950;145.008;2023-05-23T11:58:16;102493.90;;;11.05;47.90
54870;BME280;40756;-37.950;145.008;2023-05-23T12:00:46;102486.10;;;10.89;48.41
54870;BME280;40756;-37.950;145.008;2023-05-23T12:03:16;102486.66;;;10.84;48.48
54870;BME280;40756;-37.950;145.008;2023-05-23T12:05:45;102490.79;;;10.96;48.06
54870;BME280;40756;-37.950;145.008;2023-05-23T12:08:15;102491.95;;;11.00;47.92
54870;BME280;40756;-37.950;145.008;2023-05-23T12:10:52;102496.04;;;10.95;48.29
54870;BME280;40756;-37.950;145.008;2023-05-23T12:13:25;102491.27;;;11.20;48.40
54870;BME280;40756;-37.950;145.008;2023-05-23T12:15:56;102484.83;;;10.95;48.57
54870;BME280;40756;-37.950;145.008;2023-05-23T12:18:29;102481.63;;;11.12;48.74
54870;BME280;40756;-37.950;145.008;2023-05-23T12:21:01;102482.04;;;11.06;48.46
54870;BME280;40756;-37.950;145.008;2023-05-23T12:23:30;102479.85;;;11.16;48.34
54870;BME280;40756;-37.950;145.008;2023-05-23T12:26:02;102479.07;;;11.40;47.86
54870;BME280;40756;-37.950;145.008;2023-05-23T12:28:37;102477.63;;;11.50;47.70
54870;BME280;40756;-37.950;145.008;2023-05-23T12:31:11;102473.85;;;11.26;47.72
54870;BME280;40756;-37.950;145.008;2023-05-23T12:33:43;102472.58;;;11.34;48.04
54870;BME280;40756;-37.950;145.008;2023-05-23T12:36:15;102469.22;;;11.17;48.05
54870;BME280;40756;-37.950;145.008;2023-05-23T12:38:49;102465.21;;;11.04;48.17